sensor_id;sensor_type;location;lat;lon;timestamp;temperature;humidity
28175;SHT30;59417;44.788;10.334;2023-08-17T00:11:41;27.72;60.22
28175;SHT30;59417;44.788;10.334;2023-08-17T01:30:51;26.87;61.37
28175;SHT30;59417;44.788;10.334;2023-08-17T01:37:18;26.41;62.69
28175;SHT30;59417;44.788;10.334;2023-08-17T01:43:18;26.40;62.89
28175;SHT30;59417;44.788;10.334;2023-08-17T01:49:29;26.26;62.06
28175;SHT30;59417;44.788;10.334;2023-08-17T02:02:30;26.08;63.17
28175;SHT30;59417;44.788;10.334;2023-08-17T02:08:47;25.82;63.53
28175;SHT30;59417;44.788;10.334;2023-08-17T02:15:32;25.78;64.03
28175;SHT30;59417;44.788;10.334;2023-08-17T02:18:18;25.78;64.75
28175;SHT30;59417;44.788;10.334;2023-08-17T02:21:14;25.71;64.28
28175;SHT30;59417;44.788;10.334;2023-08-17T02:24:01;25.72;64.53
28175;SHT30;59417;44.788;10.334;2023-08-17T02:33:17;25.61;64.77
28175;SHT30;59417;44.788;10.334;2023-08-17T02:36:24;25.49;64.92
28175;SHT30;59417;44.788;10.334;2023-08-17T02:39:35;25.51;65.15
28175;SHT30;59417;44.788;10.334;2023-08-17T02:42:32;25.58;65.24
28175;SHT30;59417;44.788;10.334;2023-08-17T02:45:20;25.61;64.49
28175;SHT30;59417;44.788;10.334;2023-08-17T02:54:13;25.67;64.29
28175;SHT30;59417;44.788;10.334;2023-08-17T03:00:56;25.75;63.96
28175;SHT30;59417;44.788;10.334;2023-08-17T03:03:31;25.68;63.97
28175;SHT30;59417;44.788;10.334;2023-08-17T03:06:11;25.74;63.57
28175;SHT30;59417;44.788;10.334;2023-08-17T03:15:47;25.96;62.77
28175;SHT30;59417;44.788;10.334;2023-08-17T03:21:40;25.89;63.14
28175;SHT30;59417;44.788;10.334;2023-08-17T03:27:44;25.89;63.25
28175;SHT30;59417;44.788;10.334;2023-08-17T03:31:03;25.86;63.76
28175;SHT30;59417;44.788;10.334;2023-08-17T03:34:06;25.88;63.80
28175;SHT30;59417;44.788;10.334;2023-08-17T03:36:54;26.05;63.15
28175;SHT30;59417;44.788;10.334;2023-08-17T03:43:25;25.95;63.70
28175;SHT30;59417;44.788;10.334;2023-08-17T03:46:22;25.96;63.97
28175;SHT30;59417;44.788;10.334;2023-08-17T03:56:09;25.95;64.38
28175;SHT30;59417;44.788;10.334;2023-08-17T03:58:52;25.92;65.14
28175;SHT30;59417;44.788;10.334;2023-08-17T04:01:38;25.79;65.37
28175;SHT30;59417;44.788;10.334;2023-08-17T04:04:35;25.68;65.48
28175;SHT30;59417;44.788;10.334;2023-08-17T04:07:23;25.75;65.46
28175;SHT30;59417;44.788;10.334;2023-08-17T04:09:54;25.75;65.44
28175;SHT30;59417;44.788;10.334;2023-08-17T04:12:41;25.75;65.58
28175;SHT30;59417;44.788;10.334;2023-08-17T04:15:22;25.71;65.76
28175;SHT30;59417;44.788;10.334;2023-08-17T04:18:31;25.75;65.90
28175;SHT30;59417;44.788;10.334;2023-08-17T04:21:20;25.78;65.63
28175;SHT30;59417;44.788;10.334;2023-08-17T04:24:11;25.72;66.05
28175;SHT30;59417;44.788;10.334;2023-08-17T04:30:02;25.68;66.27
28175;SHT30;59417;44.788;10.334;2023-08-17T04:35:33;25.84;65.47
28175;SHT30;59417;44.788;10.334;2023-08-17T04:38:02;25.85;65.60
28175;SHT30;59417;44.788;10.334;2023-08-17T04:40:32;25.74;65.89
28175;SHT30;59417;44.788;10.334;2023-08-17T04:43:29;25.79;65.58
28175;SHT30;59417;44.788;10.334;2023-08-17T04:49:15;25.95;65.10
28175;SHT30;59417;44.788;10.334;2023-08-17T04:51:59;25.82;65.65
28175;SHT30;59417;44.788;10.334;2023-08-17T04:54:27;26.02;65.64
28175;SHT30;59417;44.788;10.334;2023-08-17T04:57:19;25.86;66.54
28175;SHT30;59417;44.788;10.334;2023-08-17T04:59:59;25.61;67.13
28175;SHT30;59417;44.788;10.334;2023-08-17T05:02:35;25.64;66.51
28175;SHT30;59417;44.788;10.334;2023-08-17T05:05:21;25.74;65.99
28175;SHT30;59417;44.788;10.334;2023-08-17T05:18:18;25.98;66.99
28175;SHT30;59417;44.788;10.334;2023-08-17T05:21:01;26.02;66.02
28175;SHT30;59417;44.788;10.334;2023-08-17T05:23:43;25.88;66.97
28175;SHT30;59417;44.788;10.334;2023-08-17T05:26:10;25.89;66.41
28175;SHT30;59417;44.788;10.334;2023-08-17T05:28:40;25.72;67.40
28175;SHT30;59417;44.788;10.334;2023-08-17T05:31:15;25.85;67.00
28175;SHT30;59417;44.788;10.334;2023-08-17T05:34:02;25.84;67.83
28175;SHT30;59417;44.788;10.334;2023-08-17T05:39:38;25.75;66.96
28175;SHT30;59417;44.788;10.334;2023-08-17T06:46:12;26.61;59.49
28175;SHT30;59417;44.788;10.334;2023-08-17T07:21:52;27.77;57.04
28175;SHT30;59417;44.788;10.334;2023-08-17T07:28:04;27.90;56.16
28175;SHT30;59417;44.788;10.334;2023-08-17T07:30:59;27.99;55.43
28175;SHT30;59417;44.788;10.334;2023-08-17T07:33:44;28.05;55.78
28175;SHT30;59417;44.788;10.334;2023-08-17T07:36:29;28.03;54.38
28175;SHT30;59417;44.788;10.334;2023-08-17T07:39:21;28.13;53.94
28175;SHT30;59417;44.788;10.334;2023-08-17T07:41:52;28.20;54.42
28175;SHT30;59417;44.788;10.334;2023-08-17T07:44:38;28.26;53.93
28175;SHT30;59417;44.788;10.334;2023-08-17T07:47:08;28.27;54.29
28175;SHT30;59417;44.788;10.334;2023-08-17T07:49:33;28.34;54.22
28175;SHT30;59417;44.788;10.334;2023-08-17T07:52:15;28.41;54.36
28175;SHT30;59417;44.788;10.334;2023-08-17T07:54:41;28.43;54.99
28175;SHT30;59417;44.788;10.334;2023-08-17T07:57:17;28.58;54.83
28175;SHT30;59417;44.788;10.334;2023-08-17T07:59:45;28.68;53.85
28175;SHT30;59417;44.788;10.334;2023-08-17T08:02:16;28.77;54.21
28175;SHT30;59417;44.788;10.334;2023-08-17T08:05:10;28.79;54.50
28175;SHT30;59417;44.788;10.334;2023-08-17T08:07:45;28.87;54.45
28175;SHT30;59417;44.788;10.334;2023-08-17T08:10:32;28.96;55.28
28175;SHT30;59417;44.788;10.334;2023-08-17T08:13:14;29.10;53.65
28175;SHT30;59417;44.788;10.334;2023-08-17T08:18:41;29.12;53.31
28175;SHT30;59417;44.788;10.334;2023-08-17T08:21:13;29.23;51.85
28175;SHT30;59417;44.788;10.334;2023-08-17T08:24:49;29.33;53.13
28175;SHT30;59417;44.788;10.334;2023-08-17T08:31:03;29.53;52.35
28175;SHT30;59417;44.788;10.334;2023-08-17T08:51:13;29.57;52.43
28175;SHT30;59417;44.788;10.334;2023-08-17T08:54:08;29.63;51.78
28175;SHT30;59417;44.788;10.334;2023-08-17T09:04:13;30.18;51.18
28175;SHT30;59417;44.788;10.334;2023-08-17T09:16:31;29.89;52.20
28175;SHT30;59417;44.788;10.334;2023-08-17T09:41:07;30.24;52.87
28175;SHT30;59417;44.788;10.334;2023-08-17T09:43:59;30.32;52.95
28175;SHT30;59417;44.788;10.334;2023-08-17T09:47:04;30.47;53.19
28175;SHT30;59417;44.788;10.334;2023-08-17T09:49:40;30.47;53.04
28175;SHT30;59417;44.788;10.334;2023-08-17T09:52:29;30.51;52.18
28175;SHT30;59417;44.788;10.334;2023-08-17T09:55:15;30.47;53.09
28175;SHT30;59417;44.788;10.334;2023-08-17T09:57:43;30.58;53.76
28175;SHT30;59417;44.788;10.334;2023-08-17T10:00:09;30.82;53.01
28175;SHT30;59417;44.788;10.334;2023-08-17T10:02:52;31.02;52.61
28175;SHT30;59417;44.788;10.334;2023-08-17T10:05:34;31.17;52.27
28175;SHT30;59417;44.788;10.334;2023-08-17T10:08:00;31.23;51.89
28175;SHT30;59417;44.788;10.334;2023-08-17T10:10:28;31.19;51.13
28175;SHT30;59417;44.788;10.334;2023-08-17T10:13:04;31.20;52.63
28175;SHT30;59417;44.788;10.334;2023-08-17T10:16:06;31.33;51.63
28175;SHT30;59417;44.788;10.334;2023-08-17T10:21:29;31.12;50.94
28175;SHT30;59417;44.788;10.334;2023-08-17T10:26:45;31.40;52.16
28175;SHT30;59417;44.788;10.334;2023-08-17T10:29:21;31.33;50.59
28175;SHT30;59417;44.788;10.334;2023-08-17T10:31:47;30.95;51.58
28175;SHT30;59417;44.788;10.334;2023-08-17T10:34:16;31.02;52.03
28175;SHT30;59417;44.788;10.334;2023-08-17T10:36:42;31.16;50.93
28175;SHT30;59417;44.788;10.334;2023-08-17T10:39:22;31.17;50.72
28175;SHT30;59417;44.788;10.334;2023-08-17T10:41:48;31.33;51.99
28175;SHT30;59417;44.788;10.334;2023-08-17T10:44:17;31.48;51.67
28175;SHT30;59417;44.788;10.334;2023-08-17T10:46:51;31.58;50.60
28175;SHT30;59417;44.788;10.334;2023-08-17T10:49:29;31.47;49.97
28175;SHT30;59417;44.788;10.334;2023-08-17T10:52:04;31.53;50.66
28175;SHT30;59417;44.788;10.334;2023-08-17T10:54:45;31.70;50.30
28175;SHT30;59417;44.788;10.334;2023-08-17T10:57:29;31.74;51.55
28175;SHT30;59417;44.788;10.334;2023-08-17T11:02:38;31.76;51.02
28175;SHT30;59417;44.788;10.334;2023-08-17T11:05:03;31.88;50.56
28175;SHT30;59417;44.788;10.334;2023-08-17T11:08:05;32.02;48.75
28175;SHT30;59417;44.788;10.334;2023-08-17T11:12:52;31.80;50.75
28175;SHT30;59417;44.788;10.334;2023-08-17T11:15:18;31.95;50.10
28175;SHT30;59417;44.788;10.334;2023-08-17T11:17:48;31.87;49.46
28175;SHT30;59417;44.788;10.334;2023-08-17T11:20:14;31.97;49.41
28175;SHT30;59417;44.788;10.334;2023-08-17T11:22:39;31.99;49.69
28175;SHT30;59417;44.788;10.334;2023-08-17T11:25:05;32.15;49.06
28175;SHT30;59417;44.788;10.334;2023-08-17T11:27:30;32.09;49.05
28175;SHT30;59417;44.788;10.334;2023-08-17T11:29:58;32.08;48.90
28175;SHT30;59417;44.788;10.334;2023-08-17T11:32:37;32.19;47.96
28175;SHT30;59417;44.788;10.334;2023-08-17T11:35:33;32.36;47.90
28175;SHT30;59417;44.788;10.334;2023-08-17T11:41:31;32.58;48.97
28175;SHT30;59417;44.788;10.334;2023-08-17T11:43:57;32.53;48.52
28175;SHT30;59417;44.788;10.334;2023-08-17T11:46:26;32.43;48.56
28175;SHT30;59417;44.788;10.334;2023-08-17T11:49:00;32.59;47.68
28175;SHT30;59417;44.788;10.334;2023-08-17T11:51:31;32.25;48.67
28175;SHT30;59417;44.788;10.334;2023-08-17T11:54:04;32.60;49.67
28175;SHT30;59417;44.788;10.334;2023-08-17T11:56:33;32.83;48.08
28175;SHT30;59417;44.788;10.334;2023-08-17T11:58:58;33.10;47.88
28175;SHT30;59417;44.788;10.334;2023-08-17T12:01:26;33.23;47.92
28175;SHT30;59417;44.788;10.334;2023-08-17T12:03:54;33.44;47.59
28175;SHT30;59417;44.788;10.334;2023-08-17T12:06:20;33.62;48.03
28175;SHT30;59417;44.788;10.334;2023-08-17T12:08:46;33.75;47.10
28175;SHT30;59417;44.788;10.334;2023-08-17T12:11:12;33.80;46.35
28175;SHT30;59417;44.788;10.334;2023-08-17T12:13:48;33.80;47.32
28175;SHT30;59417;44.788;10.334;2023-08-17T12:16:15;33.85;47.02
28175;SHT30;59417;44.788;10.334;2023-08-17T12:18:43;33.87;46.46
28175;SHT30;59417;44.788;10.334;2023-08-17T12:21:09;33.87;46.64
28175;SHT30;59417;44.788;10.334;2023-08-17T12:23:36;33.71;47.35
28175;SHT30;59417;44.788;10.334;2023-08-17T12:26:02;33.68;46.98
28175;SHT30;59417;44.788;10.334;2023-08-17T12:28:28;33.67;48.01
28175;SHT30;59417;44.788;10.334;2023-08-17T12:31:00;33.61;46.71
28175;SHT30;59417;44.788;10.334;2023-08-17T12:33:25;33.47;46.89
28175;SHT30;59417;44.788;10.334;2023-08-17T12:35:51;33.54;48.04
28175;SHT30;59417;44.788;10.334;2023-08-17T12:38:16;33.61;47.67
28175;SHT30;59417;44.788;10.334;2023-08-17T12:40:42;33.43;46.78
28175;SHT30;59417;44.788;10.334;2023-08-17T12:43:07;33.14;47.66
28175;SHT30;59417;44.788;10.334;2023-08-17T12:45:33;32.95;49.25
28175;SHT30;59417;44.788;10.334;2023-08-17T12:48:04;32.73;48.88
28175;SHT30;59417;44.788;10.334;2023-08-17T12:50:39;32.55;48.78
28175;SHT30;59417;44.788;10.334;2023-08-17T12:53:04;32.45;49.32
28175;SHT30;59417;44.788;10.334;2023-08-17T12:55:30;32.35;48.89
28175;SHT30;59417;44.788;10.334;2023-08-17T12:57:55;32.19;49.52
28175;SHT30;59417;44.788;10.334;2023-08-17T13:00:21;32.08;48.65
28175;SHT30;59417;44.788;10.334;2023-08-17T13:02:46;31.99;49.02
28175;SHT30;59417;44.788;10.334;2023-08-17T13:05:14;31.88;48.98
28175;SHT30;59417;44.788;10.334;2023-08-17T13:07:40;31.82;49.43
28175;SHT30;59417;44.788;10.334;2023-08-17T13:10:05;31.81;50.29
28175;SHT30;59417;44.788;10.334;2023-08-17T13:12:31;31.87;49.51
28175;SHT30;59417;44.788;10.334;2023-08-17T13:15:02;31.80;49.94
28175;SHT30;59417;44.788;10.334;2023-08-17T13:17:28;31.73;50.42
28175;SHT30;59417;44.788;10.334;2023-08-17T13:19:53;31.70;51.11
28175;SHT30;59417;44.788;10.334;2023-08-17T13:22:19;31.68;50.02
28175;SHT30;59417;44.788;10.334;2023-08-17T13:24:44;31.74;49.51
28175;SHT30;59417;44.788;10.334;2023-08-17T13:27:10;31.61;50.41
28175;SHT30;59417;44.788;10.334;2023-08-17T13:29:35;31.56;50.98
28175;SHT30;59417;44.788;10.334;2023-08-17T13:32:03;31.48;51.38
28175;SHT30;59417;44.788;10.334;2023-08-17T13:38:08;31.46;51.65
28175;SHT30;59417;44.788;10.334;2023-08-17T13:40:55;31.48;51.02
28175;SHT30;59417;44.788;10.334;2023-08-17T13:43:26;31.46;51.63
28175;SHT30;59417;44.788;10.334;2023-08-17T13:45:52;31.34;52.00
28175;SHT30;59417;44.788;10.334;2023-08-17T13:48:30;31.33;51.94
28175;SHT30;59417;44.788;10.334;2023-08-17T13:51:25;31.37;51.95
28175;SHT30;59417;44.788;10.334;2023-08-17T13:54:15;31.33;52.12
28175;SHT30;59417;44.788;10.334;2023-08-17T13:56:44;31.30;53.33
28175;SHT30;59417;44.788;10.334;2023-08-17T14:05:12;31.09;53.74
28175;SHT30;59417;44.788;10.334;2023-08-17T14:07:41;31.13;53.30
28175;SHT30;59417;44.788;10.334;2023-08-17T14:10:07;31.00;53.82
28175;SHT30;59417;44.788;10.334;2023-08-17T14:12:32;31.02;53.71
28175;SHT30;59417;44.788;10.334;2023-08-17T14:14:59;31.03;53.79
28175;SHT30;59417;44.788;10.334;2023-08-17T14:17:24;31.02;54.50
28175;SHT30;59417;44.788;10.334;2023-08-17T14:19:50;31.10;53.55
28175;SHT30;59417;44.788;10.334;2023-08-17T14:22:15;30.99;54.10
28175;SHT30;59417;44.788;10.334;2023-08-17T14:24:41;30.95;53.81
28175;SHT30;59417;44.788;10.334;2023-08-17T14:27:07;30.90;54.08
28175;SHT30;59417;44.788;10.334;2023-08-17T14:29:32;30.89;54.20
28175;SHT30;59417;44.788;10.334;2023-08-17T14:31:58;30.93;54.91
28175;SHT30;59417;44.788;10.334;2023-08-17T14:34:23;30.90;54.31
28175;SHT30;59417;44.788;10.334;2023-08-17T14:36:49;30.79;54.21
28175;SHT30;59417;44.788;10.334;2023-08-17T14:39:15;30.92;54.51
28175;SHT30;59417;44.788;10.334;2023-08-17T14:41:40;30.85;54.49
28175;SHT30;59417;44.788;10.334;2023-08-17T14:44:06;30.96;53.64
28175;SHT30;59417;44.788;10.334;2023-08-17T14:46:31;30.82;54.06
28175;SHT30;59417;44.788;10.334;2023-08-17T14:48:57;30.79;54.57
28175;SHT30;59417;44.788;10.334;2023-08-17T14:51:23;30.79;55.18
28175;SHT30;59417;44.788;10.334;2023-08-17T14:53:48;30.83;54.91
28175;SHT30;59417;44.788;10.334;2023-08-17T14:56:14;30.69;55.18
28175;SHT30;59417;44.788;10.334;2023-08-17T14:58:39;30.72;55.09
28175;SHT30;59417;44.788;10.334;2023-08-17T15:01:05;30.62;55.79
28175;SHT30;59417;44.788;10.334;2023-08-17T15:03:31;30.59;55.85
28175;SHT30;59417;44.788;10.334;2023-08-17T15:05:56;30.62;55.76
28175;SHT30;59417;44.788;10.334;2023-08-17T15:08:22;30.56;55.56
28175;SHT30;59417;44.788;10.334;2023-08-17T15:10:47;30.51;55.76
28175;SHT30;59417;44.788;10.334;2023-08-17T15:13:15;30.62;55.77
28175;SHT30;59417;44.788;10.334;2023-08-17T15:15:41;30.73;56.25
28175;SHT30;59417;44.788;10.334;2023-08-17T15:18:13;30.71;55.01
28175;SHT30;59417;44.788;10.334;2023-08-17T15:20:47;30.61;55.82
28175;SHT30;59417;44.788;10.334;2023-08-17T15:23:13;30.51;56.51
28175;SHT30;59417;44.788;10.334;2023-08-17T15:25:38;30.54;56.78
28175;SHT30;59417;44.788;10.334;2023-08-17T15:28:04;30.36;56.59
28175;SHT30;59417;44.788;10.334;2023-08-17T15:30:30;30.24;56.05
28175;SHT30;59417;44.788;10.334;2023-08-17T15:32:57;30.21;56.49
28175;SHT30;59417;44.788;10.334;2023-08-17T15:35:26;30.15;56.80
28175;SHT30;59417;44.788;10.334;2023-08-17T15:37:52;30.03;57.86
28175;SHT30;59417;44.788;10.334;2023-08-17T15:40:18;29.93;58.26
28175;SHT30;59417;44.788;10.334;2023-08-17T15:42:45;29.78;58.20
28175;SHT30;59417;44.788;10.334;2023-08-17T15:45:10;29.74;58.90
28175;SHT30;59417;44.788;10.334;2023-08-17T15:47:38;29.81;57.92
28175;SHT30;59417;44.788;10.334;2023-08-17T15:50:04;29.76;58.37
28175;SHT30;59417;44.788;10.334;2023-08-17T15:52:30;29.63;58.65
28175;SHT30;59417;44.788;10.334;2023-08-17T15:54:58;29.50;58.94
28175;SHT30;59417;44.788;10.334;2023-08-17T15:57:24;29.47;59.16
28175;SHT30;59417;44.788;10.334;2023-08-17T15:59:49;29.57;58.71
28175;SHT30;59417;44.788;10.334;2023-08-17T16:02:15;29.56;58.04
28175;SHT30;59417;44.788;10.334;2023-08-17T16:04:42;29.61;57.96
28175;SHT30;59417;44.788;10.334;2023-08-17T16:07:07;29.64;58.42
28175;SHT30;59417;44.788;10.334;2023-08-17T16:09:33;29.69;57.88
28175;SHT30;59417;44.788;10.334;2023-08-17T16:11:59;29.67;57.53
28175;SHT30;59417;44.788;10.334;2023-08-17T16:14:26;29.76;57.36
28175;SHT30;59417;44.788;10.334;2023-08-17T16:16:51;29.74;57.26
28175;SHT30;59417;44.788;10.334;2023-08-17T16:19:17;29.81;56.91
28175;SHT30;59417;44.788;10.334;2023-08-17T16:21:45;29.70;57.47
28175;SHT30;59417;44.788;10.334;2023-08-17T16:24:11;29.70;57.53
28175;SHT30;59417;44.788;10.334;2023-08-17T16:26:37;29.64;57.79
28175;SHT30;59417;44.788;10.334;2023-08-17T16:29:02;29.66;58.56
28175;SHT30;59417;44.788;10.334;2023-08-17T16:31:33;29.71;59.24
28175;SHT30;59417;44.788;10.334;2023-08-17T16:33:59;29.73;58.27
28175;SHT30;59417;44.788;10.334;2023-08-17T16:36:27;29.78;57.99
28175;SHT30;59417;44.788;10.334;2023-08-17T16:38:58;29.83;59.31
28175;SHT30;59417;44.788;10.334;2023-08-17T16:41:26;29.73;59.80
28175;SHT30;59417;44.788;10.334;2023-08-17T16:43:52;29.77;58.59
28175;SHT30;59417;44.788;10.334;2023-08-17T16:46:17;29.71;58.75
28175;SHT30;59417;44.788;10.334;2023-08-17T16:48:44;29.74;58.55
28175;SHT30;59417;44.788;10.334;2023-08-17T16:51:09;29.84;58.11
28175;SHT30;59417;44.788;10.334;2023-08-17T16:53:38;29.90;57.65
28175;SHT30;59417;44.788;10.334;2023-08-17T16:56:17;30.01;57.53
28175;SHT30;59417;44.788;10.334;2023-08-17T16:58:42;30.21;57.29
28175;SHT30;59417;44.788;10.334;2023-08-17T17:01:08;30.38;56.78
28175;SHT30;59417;44.788;10.334;2023-08-17T17:03:34;30.45;56.04
28175;SHT30;59417;44.788;10.334;2023-08-17T17:05:59;30.51;56.01
28175;SHT30;59417;44.788;10.334;2023-08-17T17:08:28;30.51;56.00
28175;SHT30;59417;44.788;10.334;2023-08-17T17:10:54;30.44;56.46
28175;SHT30;59417;44.788;10.334;2023-08-17T17:13:19;30.47;55.56
28175;SHT30;59417;44.788;10.334;2023-08-17T17:15:47;30.36;55.99
28175;SHT30;59417;44.788;10.334;2023-08-17T17:18:16;30.29;56.26
28175;SHT30;59417;44.788;10.334;2023-08-17T17:20:42;30.25;56.47
28175;SHT30;59417;44.788;10.334;2023-08-17T17:23:08;30.25;56.77
28175;SHT30;59417;44.788;10.334;2023-08-17T17:25:36;30.28;56.40
28175;SHT30;59417;44.788;10.334;2023-08-17T17:28:02;30.31;56.35
28175;SHT30;59417;44.788;10.334;2023-08-17T17:30:28;30.38;55.31
28175;SHT30;59417;44.788;10.334;2023-08-17T17:32:54;30.41;55.72
28175;SHT30;59417;44.788;10.334;2023-08-17T17:35:20;30.41;57.18
28175;SHT30;59417;44.788;10.334;2023-08-17T17:37:45;30.39;56.94
28175;SHT30;59417;44.788;10.334;2023-08-17T17:40:11;30.42;57.52
28175;SHT30;59417;44.788;10.334;2023-08-17T17:42:45;30.41;57.53
28175;SHT30;59417;44.788;10.334;2023-08-17T17:45:13;30.36;57.63
28175;SHT30;59417;44.788;10.334;2023-08-17T17:47:59;30.38;57.66
28175;SHT30;59417;44.788;10.334;2023-08-17T17:50:28;30.41;56.93
28175;SHT30;59417;44.788;10.334;2023-08-17T17:52:58;30.36;56.75
28175;SHT30;59417;44.788;10.334;2023-08-17T17:55:45;30.36;56.63
28175;SHT30;59417;44.788;10.334;2023-08-17T18:01:50;30.24;57.04
28175;SHT30;59417;44.788;10.334;2023-08-17T18:04:21;30.28;57.24
28175;SHT30;59417;44.788;10.334;2023-08-17T18:17:47;30.24;55.69
28175;SHT30;59417;44.788;10.334;2023-08-17T18:20:38;30.12;54.46
28175;SHT30;59417;44.788;10.334;2023-08-17T18:23:32;30.00;55.18
28175;SHT30;59417;44.788;10.334;2023-08-17T18:26:00;29.94;55.24
28175;SHT30;59417;44.788;10.334;2023-08-17T18:28:31;29.97;54.98
28175;SHT30;59417;44.788;10.334;2023-08-17T18:34:22;29.77;55.16
28175;SHT30;59417;44.788;10.334;2023-08-17T18:36:48;29.77;55.17
28175;SHT30;59417;44.788;10.334;2023-08-17T18:42:54;29.60;55.93
28175;SHT30;59417;44.788;10.334;2023-08-17T18:48:32;29.53;56.13
28175;SHT30;59417;44.788;10.334;2023-08-17T18:51:01;29.47;56.33
28175;SHT30;59417;44.788;10.334;2023-08-17T18:53:34;29.45;56.50
28175;SHT30;59417;44.788;10.334;2023-08-17T18:56:02;29.47;56.06
28175;SHT30;59417;44.788;10.334;2023-08-17T18:58:31;29.45;56.06
28175;SHT30;59417;44.788;10.334;2023-08-17T19:00:56;29.40;56.30
28175;SHT30;59417;44.788;10.334;2023-08-17T19:03:22;29.33;56.65
28175;SHT30;59417;44.788;10.334;2023-08-17T19:05:48;29.29;56.74
28175;SHT30;59417;44.788;10.334;2023-08-17T19:08:14;29.33;57.47
28175;SHT30;59417;44.788;10.334;2023-08-17T19:10:42;29.39;57.31
28175;SHT30;59417;44.788;10.334;2023-08-17T19:13:09;29.36;57.41
28175;SHT30;59417;44.788;10.334;2023-08-17T19:15:35;29.39;57.48
28175;SHT30;59417;44.788;10.334;2023-08-17T19:18:00;29.35;57.51
28175;SHT30;59417;44.788;10.334;2023-08-17T19:20:26;29.36;58.17
28175;SHT30;59417;44.788;10.334;2023-08-17T19:22:51;29.29;60.18
28175;SHT30;59417;44.788;10.334;2023-08-17T19:25:20;29.02;59.48
28175;SHT30;59417;44.788;10.334;2023-08-17T19:27:46;28.95;58.89
28175;SHT30;59417;44.788;10.334;2023-08-17T19:30:11;28.84;58.73
28175;SHT30;59417;44.788;10.334;2023-08-17T19:32:43;28.94;58.58
28175;SHT30;59417;44.788;10.334;2023-08-17T19:35:09;28.99;57.86
28175;SHT30;59417;44.788;10.334;2023-08-17T19:37:37;29.05;57.70
28175;SHT30;59417;44.788;10.334;2023-08-17T19:40:08;29.05;57.50
28175;SHT30;59417;44.788;10.334;2023-08-17T19:42:33;29.06;57.13
28175;SHT30;59417;44.788;10.334;2023-08-17T19:44:59;29.10;57.16
28175;SHT30;59417;44.788;10.334;2023-08-17T19:47:25;29.05;57.29
28175;SHT30;59417;44.788;10.334;2023-08-17T19:49:50;28.92;57.82
28175;SHT30;59417;44.788;10.334;2023-08-17T19:52:16;28.79;58.23
28175;SHT30;59417;44.788;10.334;2023-08-17T19:54:42;28.71;59.47
28175;SHT30;59417;44.788;10.334;2023-08-17T19:57:12;28.71;60.60
28175;SHT30;59417;44.788;10.334;2023-08-17T19:59:37;28.63;60.20
28175;SHT30;59417;44.788;10.334;2023-08-17T20:02:03;28.57;59.50
28175;SHT30;59417;44.788;10.334;2023-08-17T20:04:28;28.72;59.07
28175;SHT30;59417;44.788;10.334;2023-08-17T20:06:54;28.88;58.63
28175;SHT30;59417;44.788;10.334;2023-08-17T20:09:19;28.84;58.85
28175;SHT30;59417;44.788;10.334;2023-08-17T20:11:44;28.74;59.18
28175;SHT30;59417;44.788;10.334;2023-08-17T20:14:10;28.61;59.50
28175;SHT30;59417;44.788;10.334;2023-08-17T20:16:35;28.60;59.50
28175;SHT30;59417;44.788;10.334;2023-08-17T20:19:01;28.49;59.11
28175;SHT30;59417;44.788;10.334;2023-08-17T20:21:27;28.63;58.75
28175;SHT30;59417;44.788;10.334;2023-08-17T20:23:58;28.52;59.10
28175;SHT30;59417;44.788;10.334;2023-08-17T20:27:04;28.52;59.43
28175;SHT30;59417;44.788;10.334;2023-08-17T20:29:41;28.60;59.51
28175;SHT30;59417;44.788;10.334;2023-08-17T20:32:06;28.68;59.23
28175;SHT30;59417;44.788;10.334;2023-08-17T20:34:34;28.58;59.43
28175;SHT30;59417;44.788;10.334;2023-08-17T20:37:06;28.44;60.14
28175;SHT30;59417;44.788;10.334;2023-08-17T20:40:11;28.30;60.49
28175;SHT30;59417;44.788;10.334;2023-08-17T20:42:42;28.33;60.53
28175;SHT30;59417;44.788;10.334;2023-08-17T20:45:41;28.23;60.93
28175;SHT30;59417;44.788;10.334;2023-08-17T20:48:08;28.13;61.33
28175;SHT30;59417;44.788;10.334;2023-08-17T20:50:43;28.16;61.33
28175;SHT30;59417;44.788;10.334;2023-08-17T20:53:16;28.06;62.01
28175;SHT30;59417;44.788;10.334;2023-08-17T20:55:44;28.07;62.02
28175;SHT30;59417;44.788;10.334;2023-08-17T20:58:15;27.99;62.49
28175;SHT30;59417;44.788;10.334;2023-08-17T21:00:40;27.93;62.71
28175;SHT30;59417;44.788;10.334;2023-08-17T21:03:06;27.85;63.03
28175;SHT30;59417;44.788;10.334;2023-08-17T21:08:39;27.75;63.31
28175;SHT30;59417;44.788;10.334;2023-08-17T21:11:14;27.77;63.38
28175;SHT30;59417;44.788;10.334;2023-08-17T21:13:47;27.67;63.67
28175;SHT30;59417;44.788;10.334;2023-08-17T21:16:47;27.62;64.03
28175;SHT30;59417;44.788;10.334;2023-08-17T21:19:44;27.65;63.97
28175;SHT30;59417;44.788;10.334;2023-08-17T21:22:17;27.62;63.99
28175;SHT30;59417;44.788;10.334;2023-08-17T21:31:57;27.46;64.45
28175;SHT30;59417;44.788;10.334;2023-08-17T21:34:44;27.52;64.10
28175;SHT30;59417;44.788;10.334;2023-08-17T21:37:28;27.51;64.42
28175;SHT30;59417;44.788;10.334;2023-08-17T21:44:20;27.28;64.83
28175;SHT30;59417;44.788;10.334;2023-08-17T21:47:00;27.11;65.15
28175;SHT30;59417;44.788;10.334;2023-08-17T21:59:20;27.15;64.11
28175;SHT30;59417;44.788;10.334;2023-08-17T23:16:04;26.40;66.19
28175;SHT30;59417;44.788;10.334;2023-08-17T23:36:16;26.60;63.17
28175;SHT30;59417;44.788;10.334;2023-08-17T23:39:10;26.44;63.81
28175;SHT30;59417;44.788;10.334;2023-08-17T23:41:39;26.39;63.58
28175;SHT30;59417;44.788;10.334;2023-08-17T23:44:19;26.32;63.24
28175;SHT30;59417;44.788;10.334;2023-08-17T23:46:55;26.13;63.08
28175;SHT30;59417;44.788;10.334;2023-08-17T23:49:24;26.05;63.31
28175;SHT30;59417;44.788;10.334;2023-08-17T23:51:52;26.03;63.04
